createdAt,value
2023-04-06T00:02:12.034Z,67.91
2023-04-06T00:04:46.272Z,67.85
2023-04-06T00:07:18.950Z,67.69
2023-04-06T00:09:51.954Z,67.57
2023-04-06T00:12:24.625Z,67.33
2023-04-06T00:14:57.383Z,67.45
2023-04-06T00:17:30.155Z,67.56
2023-04-06T00:20:04.450Z,67.66
2023-04-06T00:22:37.123Z,67.59
2023-04-06T00:25:11.228Z,67.52
2023-04-06T00:27:43.965Z,67.50
2023-04-06T00:30:17.009Z,67.85
2023-04-06T00:32:49.741Z,67.95
2023-04-06T00:35:23.830Z,68.01
2023-04-06T00:37:56.520Z,67.99
2023-04-06T00:40:29.660Z,67.80
2023-04-06T00:43:02.342Z,67.97
2023-04-06T00:45:35.254Z,67.77
2023-04-06T00:48:08.210Z,68.08
2023-04-06T00:50:42.322Z,68.40
2023-04-06T00:53:14.925Z,68.42
2023-04-06T00:55:47.733Z,68.47
2023-04-06T00:58:20.456Z,68.24
2023-04-06T01:00:53.150Z,68.55
2023-04-06T01:03:26.138Z,68.52
2023-04-06T01:06:00.275Z,68.46
2023-04-06T01:08:32.993Z,68.66
2023-04-06T01:11:06.123Z,68.45
2023-04-06T01:13:39.434Z,68.59
2023-04-06T01:16:12.610Z,68.25
2023-04-06T01:18:45.480Z,68.14
2023-04-06T01:21:19.695Z,68.02
2023-04-06T01:23:53.824Z,68.00
2023-04-06T01:26:27.238Z,68.21
2023-04-06T01:28:59.915Z,68.17
2023-04-06T01:31:32.674Z,68.26
2023-04-06T01:34:05.764Z,68.42
2023-04-06T01:36:38.550Z,68.28
2023-04-06T01:39:12.551Z,68.08
2023-04-06T01:41:45.318Z,68.00
2023-04-06T01:44:19.219Z,67.87
2023-04-06T01:46:51.923Z,67.87
2023-04-06T01:49:24.808Z,67.97
2023-04-06T01:51:57.507Z,67.89
2023-04-06T01:54:31.648Z,67.82
2023-04-06T01:57:04.306Z,67.85
2023-04-06T01:59:36.981Z,68.01
2023-04-06T02:02:09.804Z,67.93
2023-04-06T02:04:42.475Z,68.10
2023-04-06T02:07:15.115Z,67.93
2023-04-06T02:09:49.191Z,68.12
2023-04-06T02:12:21.933Z,68.24
2023-04-06T02:14:54.554Z,68.05
2023-04-06T02:17:27.229Z,68.54
2023-04-06T02:19:59.922Z,68.25
2023-04-06T02:22:32.898Z,68.15
2023-04-06T02:25:07.512Z,68.24
2023-04-06T02:27:40.162Z,68.21
2023-04-06T02:30:13.067Z,68.18
2023-04-06T02:32:45.832Z,68.09
2023-04-06T02:35:18.483Z,68.18
2023-04-06T02:37:51.341Z,68.17
2023-04-06T02:40:25.633Z,68.19
2023-04-06T02:42:58.347Z,68.09
2023-04-06T02:45:31.149Z,68.28
2023-04-06T02:48:03.890Z,68.42
2023-04-06T02:50:36.648Z,68.22
2023-04-06T02:53:09.337Z,68.37
2023-04-06T02:55:43.369Z,68.53
2023-04-06T02:58:16.434Z,68.20
2023-04-06T03:00:49.082Z,68.34
2023-04-06T03:03:22.536Z,68.38
2023-04-06T03:05:57.285Z,68.36
2023-04-06T03:08:29.991Z,68.29
2023-04-06T03:11:04.483Z,68.48
2023-04-06T03:13:39.746Z,68.06
2023-04-06T03:16:12.532Z,68.27
2023-04-06T03:18:46.258Z,68.12
2023-04-06T03:21:20.380Z,68.15
2023-04-06T03:23:53.379Z,68.00
2023-04-06T03:26:27.434Z,68.29
2023-04-06T03:29:00.129Z,68.09
2023-04-06T03:31:32.962Z,68.28
2023-04-06T03:34:05.733Z,68.15
2023-04-06T03:36:38.446Z,68.18
2023-04-06T03:39:11.242Z,68.17
2023-04-06T03:41:45.699Z,68.27
2023-04-06T03:44:18.913Z,68.26
2023-04-06T03:46:51.635Z,68.40
2023-04-06T03:49:24.346Z,68.33
2023-04-06T03:51:57.941Z,68.20
2023-04-06T03:54:30.663Z,68.06
2023-04-06T03:57:04.829Z,68.25
2023-04-06T03:59:37.662Z,68.21
2023-04-06T04:02:10.486Z,68.29
2023-04-06T04:04:43.437Z,67.84
2023-04-06T04:07:16.186Z,68.15
2023-04-06T04:09:49.388Z,68.22
2023-04-06T04:12:23.496Z,68.19
2023-04-06T04:14:56.223Z,68.20
2023-04-06T04:17:28.982Z,68.12
2023-04-06T04:20:01.670Z,68.36
2023-04-06T04:22:34.741Z,68.57
2023-04-06T04:25:07.845Z,68.22
2023-04-06T04:27:41.918Z,67.87
2023-04-06T04:30:14.763Z,68.36
2023-04-06T04:32:47.477Z,68.21
2023-04-06T04:35:20.199Z,68.26
2023-04-06T04:37:53.163Z,68.23
2023-04-06T04:40:25.819Z,68.23
2023-04-06T04:42:59.812Z,68.39
2023-04-06T04:45:32.735Z,68.07
2023-04-06T04:48:05.994Z,68.46
2023-04-06T04:50:38.794Z,68.29
2023-04-06T04:53:11.457Z,68.55
2023-04-06T04:55:44.496Z,68.35
2023-04-06T04:58:20.608Z,68.59
2023-04-06T05:00:53.347Z,68.65
2023-04-06T05:03:27.224Z,68.90
2023-04-06T05:06:00.044Z,68.86
2023-04-06T05:08:32.778Z,68.62
2023-04-06T05:11:05.508Z,68.64
2023-04-06T05:13:39.580Z,68.84
2023-04-06T05:16:12.409Z,68.42
2023-04-06T05:18:45.186Z,68.77
2023-04-06T05:21:17.928Z,68.80
2023-04-06T05:23:50.673Z,69.32
2023-04-06T05:26:23.462Z,69.07
2023-04-06T05:28:57.543Z,69.57
2023-04-06T05:31:31.248Z,69.49
2023-04-06T05:34:04.035Z,69.56
2023-04-06T05:36:37.054Z,69.39
2023-04-06T05:39:10.052Z,69.36
2023-04-06T05:41:43.055Z,69.75
2023-04-06T05:44:17.228Z,69.99
2023-04-06T05:46:50.074Z,70.08
2023-04-06T05:49:22.984Z,70.42
2023-04-06T05:51:55.912Z,70.76
2023-04-06T05:54:28.709Z,71.35
2023-04-06T05:57:01.401Z,71.60
2023-04-06T05:59:35.728Z,71.97
2023-04-06T06:02:08.420Z,72.25
2023-04-06T06:04:41.167Z,71.98
2023-04-06T06:07:13.858Z,72.27
2023-04-06T06:09:46.564Z,72.25
2023-04-06T06:12:19.304Z,72.27
2023-04-06T06:14:53.339Z,72.51
2023-04-06T06:17:26.158Z,72.38
2023-04-06T06:19:58.789Z,72.48
2023-04-06T06:22:31.761Z,72.49
2023-04-06T06:25:04.803Z,72.60
2023-04-06T06:27:37.627Z,72.32
2023-04-06T06:30:13.043Z,72.95
2023-04-06T06:32:45.797Z,72.95
2023-04-06T06:35:18.769Z,72.99
2023-04-06T06:37:51.567Z,72.97
2023-04-06T06:40:27.152Z,73.17
2023-04-06T06:43:00.354Z,73.15
2023-04-06T06:45:34.775Z,73.04
2023-04-06T06:48:07.475Z,73.38
2023-04-06T06:50:40.137Z,73.60
2023-04-06T06:53:13.265Z,73.44
2023-04-06T06:55:46.336Z,73.64
2023-04-06T06:58:20.502Z,73.52
2023-04-06T07:00:57.922Z,73.00
2023-04-06T07:03:31.035Z,72.91
2023-04-06T07:06:03.708Z,72.73
2023-04-06T07:08:36.474Z,72.49
2023-04-06T07:11:09.148Z,72.41
2023-04-06T07:13:41.830Z,72.33
2023-04-06T07:16:15.965Z,72.31
2023-04-06T07:18:48.657Z,72.34
2023-04-06T07:21:21.386Z,72.96
2023-04-06T07:23:54.442Z,71.90
2023-04-06T07:26:27.173Z,71.54
2023-04-06T07:28:59.898Z,71.19
2023-04-06T07:31:34.536Z,71.44
2023-04-06T07:34:07.474Z,71.62
2023-04-06T07:36:40.333Z,72.00
2023-04-06T07:39:12.960Z,72.10
2023-04-06T07:41:45.630Z,72.14
2023-04-06T07:44:18.309Z,72.37
2023-04-06T07:46:52.363Z,73.54
2023-04-06T07:49:25.122Z,72.53
2023-04-06T07:51:58.293Z,72.46
2023-04-06T07:54:31.022Z,72.41
2023-04-06T07:57:03.968Z,72.00
2023-04-06T07:59:36.838Z,71.60
2023-04-06T08:02:11.152Z,72.06
2023-04-06T08:04:45.722Z,72.10
2023-04-06T08:07:18.656Z,72.21
2023-04-06T08:09:51.429Z,72.67
2023-04-06T08:12:24.067Z,71.70
2023-04-06T08:14:58.065Z,71.78
2023-04-06T08:17:33.534Z,72.22
2023-04-06T08:20:06.528Z,72.36
2023-04-06T08:22:39.144Z,71.07
2023-04-06T08:25:11.867Z,68.63
2023-04-06T08:27:44.562Z,71.41
2023-04-06T08:30:17.408Z,70.01
2023-04-06T08:32:51.706Z,71.48
2023-04-06T08:35:24.503Z,74.04
2023-04-06T08:37:57.173Z,73.92
2023-04-06T08:40:30.177Z,72.31
2023-04-06T08:43:04.870Z,70.85
2023-04-06T08:45:37.744Z,71.76
2023-04-06T08:48:13.757Z,72.75
2023-04-06T08:50:46.697Z,71.60
2023-04-06T08:53:21.030Z,73.37
2023-04-06T08:55:54.796Z,74.27
2023-04-06T08:58:37.539Z,73.49
2023-04-06T09:01:13.836Z,73.14
2023-04-06T09:03:48.961Z,74.69
2023-04-06T09:06:21.755Z,74.20
2023-04-06T09:08:55.804Z,73.33
2023-04-06T09:11:28.618Z,74.37
2023-04-06T09:14:01.270Z,72.61
2023-04-06T09:16:40.995Z,72.01
2023-04-06T09:19:15.164Z,71.65
2023-04-06T09:21:48.005Z,67.60
2023-04-06T09:24:26.365Z,69.02
2023-04-06T09:26:59.386Z,66.52
2023-04-06T09:29:33.041Z,67.57
2023-04-06T09:32:06.501Z,69.43
2023-04-06T09:34:41.030Z,70.47
2023-04-06T09:37:17.096Z,70.38
2023-04-06T09:39:52.567Z,63.40
2023-04-06T09:42:26.537Z,64.90
2023-04-06T09:44:59.427Z,68.44
2023-04-06T09:47:34.351Z,68.79
2023-04-06T09:50:09.774Z,72.04
2023-04-06T09:52:44.721Z,71.24
2023-04-06T09:55:22.570Z,71.50
2023-04-06T09:57:58.155Z,70.21
2023-04-06T10:00:32.224Z,70.66
2023-04-06T10:03:09.790Z,71.79
2023-04-06T10:05:48.618Z,69.68
2023-04-06T10:08:23.339Z,67.72
2023-04-06T10:10:56.077Z,66.95
2023-04-06T10:13:29.057Z,66.24
2023-04-06T10:16:02.479Z,66.65
2023-04-06T10:18:35.565Z,67.91
2023-04-06T10:21:14.959Z,62.58
2023-04-06T10:23:50.109Z,66.66
2023-04-06T10:26:23.282Z,63.40
2023-04-06T10:28:57.016Z,62.43
2023-04-06T10:31:30.500Z,67.12
2023-04-06T10:34:03.974Z,67.43
2023-04-06T10:36:38.910Z,67.31
2023-04-06T10:39:11.604Z,56.91
2023-04-06T10:41:45.797Z,61.11
2023-04-06T10:44:22.810Z,61.65
2023-04-06T10:46:56.219Z,62.29
2023-04-06T10:49:28.881Z,60.64
2023-04-06T10:52:03.040Z,64.64
2023-04-06T10:54:36.595Z,68.10
2023-04-06T10:57:09.444Z,68.01
2023-04-06T10:59:44.463Z,68.72
2023-04-06T11:02:23.837Z,68.75
2023-04-06T11:04:57.865Z,65.39
2023-04-06T11:07:32.401Z,67.13
2023-04-06T11:10:16.514Z,65.80
2023-04-06T11:12:53.879Z,69.05
2023-04-06T11:15:26.605Z,66.22
2023-04-06T11:17:59.269Z,65.88
2023-04-06T11:20:31.986Z,67.07
2023-04-06T11:23:06.070Z,62.42
2023-04-06T11:25:39.280Z,63.20
2023-04-06T11:28:12.810Z,61.64
2023-04-06T11:30:45.632Z,64.92
2023-04-06T11:33:22.658Z,57.19
2023-04-06T11:35:59.183Z,62.65
2023-04-06T11:38:33.454Z,54.07
2023-04-06T11:41:06.468Z,60.45
2023-04-06T11:43:39.104Z,60.56
2023-04-06T11:46:14.147Z,53.59
2023-04-06T11:48:46.915Z,62.47
2023-04-06T11:51:24.204Z,64.73
2023-04-06T11:53:58.273Z,65.50
2023-04-06T11:56:31.908Z,64.10
2023-04-06T11:59:04.949Z,68.24
2023-04-06T12:01:46.712Z,70.41
2023-04-06T12:04:19.398Z,69.49
2023-04-06T12:06:52.496Z,72.04
2023-04-06T12:09:26.559Z,72.64
2023-04-06T12:11:59.615Z,70.21
2023-04-06T12:14:32.325Z,63.61
2023-04-06T12:17:05.471Z,67.56
2023-04-06T12:19:38.102Z,68.56
2023-04-06T12:22:11.161Z,70.00
2023-04-06T12:24:45.181Z,71.41
2023-04-06T12:27:18.093Z,67.50
2023-04-06T12:29:50.712Z,66.77
2023-04-06T12:32:23.561Z,65.05
2023-04-06T12:34:56.363Z,58.57
2023-04-06T12:37:29.086Z,64.12
2023-04-06T12:40:04.385Z,65.53
2023-04-06T12:42:37.090Z,68.20
2023-04-06T12:45:10.084Z,60.87
2023-04-06T12:47:42.839Z,63.01
2023-04-06T12:50:15.590Z,65.18
2023-04-06T12:52:49.442Z,60.56
2023-04-06T12:55:23.750Z,64.44
2023-04-06T12:57:56.625Z,64.53
2023-04-06T13:00:29.474Z,66.70
2023-04-06T13:03:02.261Z,65.82
2023-04-06T13:05:34.896Z,68.82
2023-04-06T13:08:07.547Z,66.65
2023-04-06T13:10:45.164Z,70.67
2023-04-06T13:13:17.889Z,71.90
2023-04-06T13:15:50.560Z,67.28
2023-04-06T13:18:24.015Z,68.54
2023-04-06T13:20:57.527Z,71.53
2023-04-06T13:23:30.686Z,66.30
2023-04-06T13:26:05.491Z,69.18
2023-04-06T13:28:40.039Z,70.36
2023-04-06T13:31:12.954Z,69.57
2023-04-06T13:33:45.945Z,65.54
2023-04-06T13:36:18.667Z,65.45
2023-04-06T13:38:51.520Z,66.13
2023-04-06T13:41:27.433Z,68.36
2023-04-06T13:44:00.164Z,68.13
2023-04-06T13:46:33.215Z,67.98
2023-04-06T13:49:06.822Z,63.42
2023-04-06T13:51:39.479Z,70.26
2023-04-06T13:54:12.464Z,63.65
2023-04-06T13:56:46.590Z,63.66
2023-04-06T13:59:19.299Z,65.34
2023-04-06T14:01:52.044Z,71.47
2023-04-06T14:04:24.872Z,65.68
2023-04-06T14:06:57.715Z,64.59
2023-04-06T14:09:30.938Z,64.93
2023-04-06T14:12:05.069Z,66.02
2023-04-06T14:14:37.699Z,54.25
2023-04-06T14:17:10.408Z,47.93
2023-04-06T14:19:44.127Z,47.62
2023-04-06T14:22:16.764Z,52.35
2023-04-06T14:24:49.466Z,54.84
2023-04-06T14:27:23.731Z,59.17
2023-04-06T14:29:57.294Z,60.66
2023-04-06T14:32:30.170Z,62.76
2023-04-06T14:35:04.100Z,65.02
2023-04-06T14:37:37.684Z,63.13
2023-04-06T14:40:10.695Z,60.30
2023-04-06T14:42:44.802Z,66.95
2023-04-06T14:45:18.418Z,63.89
2023-04-06T14:47:51.616Z,64.28
2023-04-06T14:50:24.402Z,64.45
2023-04-06T14:52:57.263Z,61.31
2023-04-06T14:55:29.965Z,64.45
2023-04-06T14:58:04.001Z,68.61
2023-04-06T15:00:36.756Z,69.55
2023-04-06T15:03:09.661Z,69.36
2023-04-06T15:05:42.567Z,68.65
2023-04-06T15:08:16.134Z,67.47
2023-04-06T15:10:49.152Z,68.70
2023-04-06T15:13:23.190Z,66.57
2023-04-06T15:15:56.334Z,66.17
2023-04-06T15:18:29.006Z,63.88
2023-04-06T15:21:01.734Z,63.30
2023-04-06T15:23:35.357Z,61.13
2023-04-06T15:26:08.374Z,62.45
2023-04-06T15:28:42.414Z,62.65
2023-04-06T15:31:20.716Z,65.69
2023-04-06T15:34:01.467Z,59.72
2023-04-06T15:36:34.197Z,61.03
2023-04-06T15:39:09.756Z,60.05
2023-04-06T15:41:42.751Z,60.67
2023-04-06T15:44:16.770Z,61.58
2023-04-06T15:46:49.514Z,63.29
2023-04-06T15:49:22.297Z,59.95
2023-04-06T15:51:54.956Z,60.83
2023-04-06T15:54:27.670Z,64.94
2023-04-06T15:57:00.468Z,65.06
2023-04-06T15:59:34.541Z,68.89
2023-04-06T16:02:07.485Z,60.34
2023-04-06T16:04:40.334Z,62.43
2023-04-06T16:07:13.002Z,65.54
2023-04-06T16:09:45.690Z,60.49
2023-04-06T16:12:18.345Z,65.61
2023-04-06T16:14:52.530Z,64.64
2023-04-06T16:17:25.318Z,65.17
2023-04-06T16:19:58.419Z,64.92
2023-04-06T16:22:31.110Z,67.00
2023-04-06T16:25:04.013Z,65.32
2023-04-06T16:27:37.834Z,60.76
2023-04-06T16:30:12.963Z,62.75
2023-04-06T16:32:47.550Z,64.62
2023-04-06T16:35:20.657Z,66.08
2023-04-06T16:37:53.331Z,65.87
2023-04-06T16:40:26.169Z,65.76
2023-04-06T16:42:59.549Z,63.83
2023-04-06T16:45:33.639Z,64.17
2023-04-06T16:48:06.712Z,65.69
2023-04-06T16:50:39.414Z,64.50
2023-04-06T16:53:12.228Z,64.36
2023-04-06T16:55:45.459Z,65.14
2023-04-06T16:58:18.135Z,65.95
2023-04-06T17:00:52.223Z,66.76
2023-04-06T17:03:25.335Z,64.90
2023-04-06T17:05:58.842Z,65.46
2023-04-06T17:08:31.507Z,65.17
2023-04-06T17:11:04.961Z,66.56
2023-04-06T17:13:38.089Z,66.71
2023-04-06T17:16:12.404Z,66.60
2023-04-06T17:18:45.019Z,67.03
2023-04-06T17:21:20.587Z,67.11
2023-04-06T17:23:53.319Z,67.72
2023-04-06T17:26:26.165Z,66.23
2023-04-06T17:28:58.821Z,65.97
2023-04-06T17:31:32.952Z,60.34
2023-04-06T17:34:05.700Z,68.01
2023-04-06T17:36:38.363Z,65.79
2023-04-06T17:39:11.952Z,68.97
2023-04-06T17:41:44.781Z,64.77
2023-04-06T17:44:17.638Z,63.31
2023-04-06T17:46:51.898Z,61.08
2023-04-06T17:49:24.690Z,57.77
2023-04-06T17:51:57.382Z,62.96
2023-04-06T17:54:30.048Z,62.10
2023-04-06T17:57:02.796Z,62.62
2023-04-06T17:59:35.537Z,64.96
2023-04-06T18:02:09.775Z,64.69
2023-04-06T18:04:44.234Z,62.20
2023-04-06T18:07:17.074Z,65.67
2023-04-06T18:09:49.738Z,67.04
2023-04-06T18:12:22.432Z,69.43
2023-04-06T18:14:55.089Z,70.12
2023-04-06T18:17:29.169Z,67.95
2023-04-06T18:20:01.837Z,67.34
2023-04-06T18:22:36.700Z,66.06
2023-04-06T18:25:09.875Z,65.92
2023-04-06T18:27:42.735Z,65.05
2023-04-06T18:30:17.667Z,61.32
2023-04-06T18:32:52.840Z,63.12
2023-04-06T18:35:25.591Z,64.00
2023-04-06T18:37:58.301Z,63.49
2023-04-06T18:40:35.377Z,64.34
2023-04-06T18:43:08.975Z,60.12
2023-04-06T18:45:43.430Z,66.24
2023-04-06T18:48:17.541Z,60.91
2023-04-06T18:50:53.868Z,63.38
2023-04-06T18:53:26.509Z,59.90
2023-04-06T18:55:59.229Z,52.56
2023-04-06T18:58:31.879Z,61.07
2023-04-06T19:01:04.911Z,61.41
2023-04-06T19:03:40.271Z,62.82
2023-04-06T19:06:13.386Z,63.92
2023-04-06T19:08:46.039Z,64.32
2023-04-06T19:11:20.084Z,65.37
2023-04-06T19:13:54.317Z,66.45
2023-04-06T19:16:27.574Z,65.75
2023-04-06T19:19:01.721Z,66.09
2023-04-06T19:21:34.397Z,64.61
2023-04-06T19:24:07.489Z,65.36
2023-04-06T19:26:40.270Z,64.50
2023-04-06T19:29:12.918Z,64.29
2023-04-06T19:31:45.752Z,63.57
2023-04-06T19:34:19.864Z,66.19
2023-04-06T19:36:52.570Z,65.62
2023-04-06T19:39:26.515Z,61.94
2023-04-06T19:41:59.326Z,64.90
2023-04-06T19:44:31.974Z,65.92
2023-04-06T19:47:04.628Z,65.85
2023-04-06T19:49:40.736Z,65.38
2023-04-06T19:52:13.558Z,66.76
2023-04-06T19:54:47.059Z,61.58
2023-04-06T19:57:19.867Z,64.31
2023-04-06T19:59:52.644Z,64.70
2023-04-06T20:02:25.572Z,66.43
2023-04-06T20:04:59.824Z,66.45
2023-04-06T20:07:32.603Z,63.34
2023-04-06T20:10:05.950Z,66.37
2023-04-06T20:12:39.382Z,65.50
2023-04-06T20:15:12.517Z,66.52
2023-04-06T20:17:45.354Z,67.06
2023-04-06T20:20:19.574Z,67.46
2023-04-06T20:22:52.555Z,67.88
2023-04-06T20:25:25.637Z,68.03
2023-04-06T20:27:58.315Z,67.74
2023-04-06T20:30:31.034Z,68.38
2023-04-06T20:33:03.723Z,68.79
2023-04-06T20:35:38.138Z,68.73
2023-04-06T20:38:10.866Z,68.94
2023-04-06T20:40:45.350Z,68.99
2023-04-06T20:43:18.528Z,68.89
2023-04-06T20:45:51.199Z,69.05
2023-04-06T20:48:23.969Z,68.92
2023-04-06T20:50:58.557Z,69.65
2023-04-06T20:53:31.879Z,70.12
2023-04-06T20:56:04.582Z,69.97
2023-04-06T20:58:37.278Z,69.54
2023-04-06T21:01:13.316Z,69.86
2023-04-06T21:03:46.304Z,69.38
2023-04-06T21:06:21.014Z,69.48
2023-04-06T21:08:53.695Z,69.56
2023-04-06T21:11:27.137Z,69.33
2023-04-06T21:13:59.985Z,69.96
2023-04-06T21:16:32.696Z,70.44
2023-04-06T21:19:05.406Z,70.31
2023-04-06T21:21:39.404Z,71.15
2023-04-06T21:24:12.204Z,70.75
2023-04-06T21:26:44.806Z,70.12
2023-04-06T21:29:17.482Z,70.76
2023-04-06T21:31:50.133Z,70.39
2023-04-06T21:34:22.939Z,71.40
2023-04-06T21:36:57.033Z,70.65
2023-04-06T21:39:29.816Z,71.39
2023-04-06T21:42:02.431Z,70.96
2023-04-06T21:44:35.168Z,71.76
2023-04-06T21:47:07.951Z,71.50
2023-04-06T21:49:40.789Z,71.91
2023-04-06T21:52:15.084Z,71.47
2023-04-06T21:54:47.901Z,71.48
2023-04-06T21:57:20.522Z,71.81
2023-04-06T21:59:53.224Z,71.80
2023-04-06T22:02:26.192Z,72.31
2023-04-06T22:04:59.166Z,71.02
2023-04-06T22:07:33.356Z,71.15
2023-04-06T22:10:06.384Z,71.17
2023-04-06T22:12:40.002Z,71.41
2023-04-06T22:15:13.496Z,72.55
2023-04-06T22:17:46.484Z,72.03
2023-04-06T22:20:19.223Z,71.72
2023-04-06T22:22:53.526Z,71.96
2023-04-06T22:25:26.370Z,71.64
2023-04-06T22:27:58.983Z,71.67
2023-04-06T22:30:31.873Z,71.58
2023-04-06T22:33:04.638Z,71.24
2023-04-06T22:35:37.450Z,71.38
2023-04-06T22:38:11.523Z,71.46
2023-04-06T22:40:44.257Z,71.29
2023-04-06T22:43:17.013Z,71.05
2023-04-06T22:45:49.687Z,71.90
2023-04-06T22:48:22.650Z,71.41
2023-04-06T22:50:55.756Z,70.97
2023-04-06T22:53:29.808Z,71.15
2023-04-06T22:56:02.516Z,71.60
2023-04-06T22:58:35.234Z,71.50
2023-04-06T23:01:08.026Z,72.12
2023-04-06T23:03:41.325Z,71.26
2023-04-06T23:06:14.410Z,71.73
2023-04-06T23:08:48.550Z,71.00
2023-04-06T23:11:21.426Z,72.04
2023-04-06T23:13:54.118Z,71.40
2023-04-06T23:16:27.597Z,71.66
2023-04-06T23:19:00.416Z,71.48
2023-04-06T23:21:33.437Z,71.65
2023-04-06T23:24:07.689Z,71.29
2023-04-06T23:26:40.528Z,71.75
2023-04-06T23:29:13.197Z,71.61
2023-04-06T23:31:45.997Z,71.41
2023-04-06T23:34:18.657Z,70.92
2023-04-06T23:36:51.356Z,70.95
2023-04-06T23:39:25.557Z,71.24
2023-04-06T23:41:58.936Z,71.05
2023-04-06T23:44:31.871Z,71.70
2023-04-06T23:47:04.647Z,72.13
2023-04-06T23:49:37.352Z,72.06
2023-04-06T23:52:10.121Z,71.94
2023-04-06T23:54:44.155Z,71.44
2023-04-06T23:57:16.933Z,71.49
2023-04-06T23:59:49.549Z,71.83
